createdAt,value
2018-08-31T00:00:08.303Z,84.84
2018-08-31T00:02:47.932Z,85.11
2018-08-31T00:05:57.126Z,84.73
2018-08-31T00:08:46.697Z,85.00
2018-08-31T00:13:38.258Z,85.03
2018-08-31T00:16:06.499Z,85.22
2018-08-31T00:18:34.589Z,85.01
2018-08-31T00:21:02.684Z,84.10
2018-08-31T00:23:41.653Z,83.81
2018-08-31T00:28:25.681Z,84.46
2018-08-31T00:31:05.532Z,85.00
2018-08-31T00:34:09.572Z,85.37
2018-08-31T00:36:48.493Z,83.68
2018-08-31T00:39:34.492Z,84.11
2018-08-31T00:42:43.153Z,84.48
2018-08-31T00:45:26.234Z,85.16
2018-08-31T00:47:54.305Z,85.45
2018-08-31T00:50:22.407Z,85.61
2018-08-31T00:52:50.407Z,85.05
2018-08-31T00:55:18.557Z,85.43
2018-08-31T00:57:46.644Z,85.43
2018-08-31T01:00:14.644Z,85.55
2018-08-31T01:02:42.805Z,84.94
2018-08-31T01:05:10.957Z,85.15
2018-08-31T01:07:39.183Z,85.54
2018-08-31T01:10:07.267Z,85.08
2018-08-31T01:12:35.376Z,85.36
2018-08-31T01:15:03.465Z,85.46
2018-08-31T01:17:31.530Z,85.15
2018-08-31T01:19:59.553Z,85.99
2018-08-31T01:22:27.660Z,85.61
2018-08-31T01:24:55.672Z,85.97
2018-08-31T01:27:23.700Z,86.06
2018-08-31T01:29:51.727Z,86.46
2018-08-31T01:32:19.907Z,85.61
2018-08-31T01:34:47.908Z,85.65
2018-08-31T01:37:16.007Z,84.91
2018-08-31T01:39:43.981Z,85.17
2018-08-31T01:42:12.185Z,85.35
2018-08-31T01:44:40.507Z,85.65
2018-08-31T01:47:08.947Z,85.73
2018-08-31T01:49:37.233Z,85.19
2018-08-31T01:52:05.577Z,85.70
2018-08-31T01:54:33.774Z,85.64
2018-08-31T01:57:01.897Z,85.41
2018-08-31T01:59:29.997Z,85.48
2018-08-31T02:01:58.280Z,85.24
2018-08-31T02:04:26.525Z,85.35
2018-08-31T02:06:54.926Z,85.44
2018-08-31T02:09:23.181Z,85.78
2018-08-31T02:11:52.389Z,85.47
2018-08-31T02:14:20.656Z,85.64
2018-08-31T02:16:48.677Z,85.60
2018-08-31T02:19:16.700Z,85.55
2018-08-31T02:21:45.056Z,85.41
2018-08-31T02:24:13.415Z,84.77
2018-08-31T02:26:41.621Z,85.66
2018-08-31T02:29:09.998Z,86.17
2018-08-31T02:31:38.387Z,86.15
2018-08-31T02:34:06.802Z,85.77
2018-08-31T02:36:35.103Z,85.50
2018-08-31T02:39:03.701Z,85.61
2018-08-31T02:41:31.942Z,85.80
2018-08-31T02:44:00.400Z,85.62
2018-08-31T02:46:28.547Z,85.25
2018-08-31T02:48:57.063Z,85.43
2018-08-31T02:51:25.235Z,85.53
2018-08-31T02:53:53.494Z,85.56
2018-08-31T02:56:21.699Z,85.36
2018-08-31T02:58:50.012Z,85.65
2018-08-31T03:01:18.275Z,86.06
2018-08-31T03:03:46.804Z,85.96
2018-08-31T03:06:15.121Z,85.55
2018-08-31T03:08:43.595Z,86.08
2018-08-31T03:11:11.935Z,86.29
2018-08-31T03:13:40.098Z,86.39
2018-08-31T03:16:08.303Z,85.64
2018-08-31T03:18:36.547Z,85.48
2018-08-31T03:21:04.811Z,85.13
2018-08-31T03:23:33.113Z,85.71
2018-08-31T03:26:01.388Z,86.27
2018-08-31T03:28:29.850Z,86.02
2018-08-31T03:30:58.078Z,86.21
2018-08-31T03:33:27.251Z,86.56
2018-08-31T03:35:55.571Z,86.39
2018-08-31T03:38:23.815Z,85.96
2018-08-31T03:40:52.042Z,85.33
2018-08-31T03:43:20.240Z,85.42
2018-08-31T03:45:48.465Z,85.13
2018-08-31T03:48:16.802Z,84.75
2018-08-31T03:50:45.104Z,83.89
2018-08-31T03:53:13.461Z,84.52
2018-08-31T03:55:41.711Z,84.74
2018-08-31T03:58:09.886Z,84.95
2018-08-31T04:00:38.391Z,85.12
2018-08-31T04:03:06.840Z,85.33
2018-08-31T04:05:35.121Z,86.47
2018-08-31T04:08:03.326Z,86.57
2018-08-31T04:10:31.742Z,86.26
2018-08-31T04:13:00.031Z,86.27
2018-08-31T04:15:28.491Z,85.86
2018-08-31T04:17:56.688Z,85.82
2018-08-31T04:20:25.009Z,84.69
2018-08-31T04:22:53.189Z,84.46
2018-08-31T04:25:21.411Z,84.54
2018-08-31T04:27:49.554Z,84.99
2018-08-31T04:30:17.832Z,85.00
2018-08-31T04:32:46.052Z,84.26
2018-08-31T04:35:14.385Z,83.84
2018-08-31T04:37:42.732Z,84.31
2018-08-31T04:40:11.310Z,84.88
2018-08-31T04:42:39.500Z,85.07
2018-08-31T04:45:08.000Z,84.84
2018-08-31T04:47:36.254Z,84.10
2018-08-31T04:50:04.555Z,83.75
2018-08-31T04:52:32.834Z,83.91
2018-08-31T04:55:01.229Z,84.30
2018-08-31T04:57:29.425Z,83.71
2018-08-31T04:59:57.619Z,83.75
2018-08-31T05:02:25.881Z,82.99
2018-08-31T05:04:54.086Z,82.37
2018-08-31T05:07:22.527Z,82.52
2018-08-31T05:09:50.626Z,82.73
2018-08-31T05:12:19.025Z,82.25
2018-08-31T05:14:47.204Z,81.32
2018-08-31T05:17:15.568Z,80.34
2018-08-31T05:19:43.701Z,80.50
2018-08-31T05:22:11.987Z,80.36
2018-08-31T05:24:40.257Z,79.91
2018-08-31T05:27:08.672Z,80.26
2018-08-31T05:29:37.057Z,80.35
2018-08-31T05:32:05.334Z,79.22
2018-08-31T05:34:33.545Z,78.90
2018-08-31T05:37:01.960Z,77.82
2018-08-31T05:39:30.148Z,77.36
2018-08-31T05:41:58.450Z,76.71
2018-08-31T05:44:27.135Z,75.62
2018-08-31T05:46:55.435Z,75.33
2018-08-31T05:49:23.662Z,73.75
2018-08-31T05:51:51.909Z,73.16
2018-08-31T05:54:20.130Z,70.98
2018-08-31T05:56:48.429Z,70.17
2018-08-31T05:59:16.685Z,68.83
2018-08-31T06:01:44.963Z,68.80
2018-08-31T06:04:13.137Z,67.66
2018-08-31T06:06:41.359Z,67.54
2018-08-31T06:09:10.783Z,68.46
2018-08-31T06:11:39.257Z,68.05
2018-08-31T06:14:07.481Z,67.65
2018-08-31T06:16:35.777Z,66.77
2018-08-31T06:19:04.010Z,66.52
2018-08-31T06:21:32.329Z,66.38
2018-08-31T06:24:00.599Z,65.94
2018-08-31T06:26:28.818Z,67.39
2018-08-31T06:28:57.964Z,66.80
2018-08-31T06:31:26.324Z,67.66
2018-08-31T06:33:54.619Z,69.03
2018-08-31T06:36:22.901Z,69.40
2018-08-31T06:38:51.102Z,69.72
2018-08-31T06:41:19.482Z,71.51
2018-08-31T06:43:47.652Z,70.13
2018-08-31T06:46:16.048Z,70.22
2018-08-31T06:48:44.236Z,69.85
2018-08-31T06:51:12.574Z,68.63
2018-08-31T06:53:40.947Z,67.66
2018-08-31T06:56:09.201Z,66.97
2018-08-31T06:58:37.535Z,66.61
2018-08-31T07:01:05.994Z,66.20
2018-08-31T07:03:34.402Z,66.87
2018-08-31T07:06:02.715Z,69.10
2018-08-31T07:08:30.964Z,69.46
2018-08-31T07:10:59.226Z,68.58
2018-08-31T07:13:27.456Z,67.41
2018-08-31T07:15:55.594Z,67.46
2018-08-31T07:18:23.954Z,65.89
2018-08-31T07:20:52.174Z,65.48
2018-08-31T07:23:20.497Z,64.71
2018-08-31T07:25:48.830Z,66.00
2018-08-31T07:28:17.149Z,64.45
2018-08-31T07:30:45.712Z,65.32
2018-08-31T07:33:14.411Z,64.79
2018-08-31T07:35:42.689Z,65.05
2018-08-31T07:38:10.985Z,63.67
2018-08-31T07:40:39.169Z,62.44
2018-08-31T07:43:07.951Z,62.50
2018-08-31T07:45:36.170Z,62.23
2018-08-31T07:48:04.476Z,62.43
2018-08-31T07:50:32.847Z,62.13
2018-08-31T07:53:01.208Z,62.82
2018-08-31T07:55:29.516Z,62.33
2018-08-31T07:57:58.076Z,63.08
2018-08-31T08:00:26.288Z,61.62
2018-08-31T08:02:55.104Z,59.15
2018-08-31T08:05:23.360Z,58.59
2018-08-31T08:07:51.637Z,59.53
2018-08-31T08:10:19.861Z,57.23
2018-08-31T08:12:48.070Z,55.42
2018-08-31T08:15:16.379Z,55.08
2018-08-31T08:17:44.727Z,52.88
2018-08-31T08:20:13.039Z,53.70
2018-08-31T08:22:41.407Z,54.90
2018-08-31T08:25:09.728Z,55.69
2018-08-31T08:27:38.007Z,55.31
2018-08-31T08:30:06.327Z,56.73
2018-08-31T08:32:34.635Z,56.60
2018-08-31T08:35:02.839Z,55.83
2018-08-31T08:37:31.232Z,53.57
2018-08-31T08:39:59.532Z,53.51
2018-08-31T08:42:27.932Z,52.69
2018-08-31T08:44:56.274Z,54.04
2018-08-31T08:47:24.494Z,53.53
2018-08-31T08:49:52.809Z,52.46
2018-08-31T08:52:21.033Z,52.85
2018-08-31T08:54:49.314Z,52.82
2018-08-31T08:57:17.633Z,53.00
2018-08-31T08:59:45.953Z,51.84
2018-08-31T09:02:14.173Z,51.64
2018-08-31T09:04:42.473Z,52.16
2018-08-31T09:07:13.360Z,51.63
2018-08-31T09:09:41.713Z,50.42
2018-08-31T09:12:10.607Z,50.69
2018-08-31T09:14:38.913Z,50.13
2018-08-31T09:17:07.194Z,52.17
2018-08-31T09:19:35.498Z,50.02
2018-08-31T09:22:04.436Z,50.06
2018-08-31T09:24:32.891Z,48.35
2018-08-31T09:27:01.173Z,49.58
2018-08-31T09:29:29.572Z,50.12
2018-08-31T09:32:00.153Z,49.66
2018-08-31T09:34:31.837Z,49.20
2018-08-31T09:37:00.973Z,49.05
2018-08-31T09:39:29.453Z,49.04
2018-08-31T09:41:58.173Z,49.57
2018-08-31T09:44:26.964Z,48.15
2018-08-31T09:46:57.209Z,49.27
2018-08-31T09:49:25.692Z,50.67
2018-08-31T09:51:57.332Z,51.07
2018-08-31T09:54:26.332Z,50.42
2018-08-31T09:56:54.792Z,49.96
2018-08-31T09:59:23.572Z,51.28
2018-08-31T10:01:51.992Z,50.71
2018-08-31T10:26:41.131Z,50.03
2018-08-31T10:29:14.039Z,47.26
2018-08-31T10:31:42.519Z,49.19
2018-08-31T10:34:12.218Z,48.86
2018-08-31T10:36:40.659Z,48.05
2018-08-31T10:39:13.459Z,48.54
2018-08-31T10:41:41.978Z,48.68
2018-08-31T10:44:10.979Z,48.07
2018-08-31T10:46:40.919Z,47.89
2018-08-31T10:49:09.358Z,51.55
2018-08-31T10:51:37.998Z,51.32
2018-08-31T10:54:06.521Z,51.48
2018-08-31T10:59:47.979Z,51.32
2018-08-31T11:02:16.179Z,51.50
2018-08-31T11:04:44.398Z,51.13
2018-08-31T11:07:12.699Z,50.88
2018-08-31T11:09:40.919Z,51.19
2018-08-31T11:12:09.120Z,49.11
2018-08-31T11:14:37.310Z,48.50
2018-08-31T11:17:05.624Z,48.82
2018-08-31T11:19:34.019Z,47.91
2018-08-31T11:22:02.359Z,50.04
2018-08-31T11:24:30.799Z,50.05
2018-08-31T11:26:59.079Z,50.27
2018-08-31T11:29:27.339Z,49.01
2018-08-31T11:31:55.791Z,49.01
2018-08-31T11:34:24.180Z,49.70
2018-08-31T11:36:52.359Z,49.92
2018-08-31T11:39:20.672Z,49.29
2018-08-31T11:41:49.239Z,48.61
2018-08-31T11:44:17.519Z,47.82
2018-08-31T11:46:45.811Z,47.64
2018-08-31T11:49:13.999Z,49.09
2018-08-31T11:51:42.330Z,49.59
2018-08-31T11:54:10.519Z,49.18
2018-08-31T11:56:38.871Z,49.60
2018-08-31T11:59:07.019Z,50.41
2018-08-31T12:01:35.280Z,49.58
2018-08-31T12:04:03.519Z,49.98
2018-08-31T12:06:31.951Z,49.15
2018-08-31T12:09:00.239Z,48.10
2018-08-31T12:11:28.499Z,48.21
2018-08-31T12:13:56.659Z,49.38
2018-08-31T12:16:24.991Z,48.77
2018-08-31T12:21:45.560Z,50.87
2018-08-31T12:24:17.148Z,51.14
2018-08-31T12:30:03.831Z,51.11
2018-08-31T12:32:32.740Z,51.93
2018-08-31T12:35:01.416Z,51.26
2018-08-31T12:37:29.914Z,50.35
2018-08-31T12:39:58.817Z,50.59
2018-08-31T12:42:27.402Z,51.16
2018-08-31T12:44:55.984Z,50.80
2018-08-31T12:47:24.644Z,51.33
2018-08-31T12:50:07.121Z,51.28
2018-08-31T12:52:36.203Z,51.07
2018-08-31T12:55:05.076Z,49.57
2018-08-31T12:57:34.653Z,48.91
2018-08-31T13:00:03.424Z,48.63
2018-08-31T13:02:34.662Z,48.32
2018-08-31T13:05:04.539Z,48.00
2018-08-31T13:07:33.802Z,48.97
2018-08-31T13:10:03.118Z,48.21
2018-08-31T13:12:32.005Z,49.40
2018-08-31T13:15:00.708Z,48.54
2018-08-31T13:17:32.030Z,49.32
2018-08-31T13:20:37.762Z,48.40
2018-08-31T13:23:32.670Z,48.55
2018-08-31T13:26:02.042Z,48.55
2018-08-31T13:28:33.984Z,47.04
2018-08-31T13:31:07.157Z,47.54
2018-08-31T13:33:38.109Z,47.34
2018-08-31T13:36:09.680Z,48.12
2018-08-31T13:38:41.871Z,47.06
2018-08-31T13:41:18.484Z,48.02
2018-08-31T13:43:49.779Z,47.44
2018-08-31T13:46:21.805Z,47.33
2018-08-31T13:49:05.061Z,48.07
2018-08-31T13:51:41.869Z,47.03
2018-08-31T13:54:13.368Z,46.18
2018-08-31T13:57:08.745Z,48.10
2018-08-31T13:59:50.363Z,47.62
2018-08-31T14:02:22.786Z,47.72
2018-08-31T14:04:54.152Z,47.82
2018-08-31T14:07:33.662Z,47.51
2018-08-31T14:10:12.367Z,47.31
2018-08-31T14:12:54.614Z,47.82
2018-08-31T14:15:42.803Z,46.81
2018-08-31T14:18:21.386Z,47.13
2018-08-31T14:23:37.153Z,47.42
2018-08-31T14:26:08.869Z,47.57
2018-08-31T14:28:48.299Z,46.50
2018-08-31T14:31:19.829Z,47.19
2018-08-31T14:33:52.729Z,46.53
2018-08-31T14:36:23.326Z,47.43
2018-08-31T14:38:52.701Z,47.51
2018-08-31T14:41:27.696Z,46.32
2018-08-31T14:43:56.719Z,47.29
2018-08-31T14:46:27.438Z,46.53
2018-08-31T14:48:58.132Z,47.30
2018-08-31T14:51:29.142Z,47.07
2018-08-31T14:54:08.634Z,45.65
2018-08-31T14:56:41.435Z,46.47
2018-08-31T14:59:33.932Z,46.80
2018-08-31T15:02:06.349Z,46.64
2018-08-31T15:04:50.026Z,46.83
2018-08-31T15:07:38.711Z,45.45
2018-08-31T15:25:26.099Z,47.49
2018-08-31T15:27:54.567Z,47.57
2018-08-31T15:30:22.807Z,48.60
2018-08-31T15:32:51.127Z,47.59
2018-08-31T15:35:19.427Z,47.57
2018-08-31T15:37:48.547Z,48.60
2018-08-31T15:43:59.289Z,48.14
2018-08-31T15:48:37.974Z,48.74
2018-08-31T15:51:06.223Z,48.68
2018-08-31T15:53:34.623Z,49.79
2018-08-31T15:56:03.067Z,49.89
2018-08-31T15:58:31.463Z,50.46
2018-08-31T16:00:59.764Z,50.48
2018-08-31T16:03:28.064Z,49.55
2018-08-31T16:05:56.324Z,49.83
2018-08-31T16:08:24.663Z,49.85
2018-08-31T16:10:52.975Z,50.46
2018-08-31T16:13:21.293Z,49.43
2018-08-31T16:15:49.631Z,49.02
2018-08-31T16:18:17.920Z,50.62
2018-08-31T16:20:46.293Z,49.90
2018-08-31T16:23:14.952Z,49.99
2018-08-31T16:25:43.196Z,49.54
2018-08-31T16:28:11.499Z,50.40
2018-08-31T16:30:40.127Z,50.22
2018-08-31T16:33:08.432Z,49.49
2018-08-31T16:35:36.775Z,49.90
2018-08-31T16:38:05.115Z,51.05
2018-08-31T16:40:33.221Z,50.89
2018-08-31T16:43:01.476Z,51.19
2018-08-31T16:45:29.907Z,50.99
2018-08-31T16:47:58.156Z,51.45
2018-08-31T16:50:26.567Z,51.08
2018-08-31T16:52:54.769Z,51.65
2018-08-31T16:55:23.066Z,50.62
2018-08-31T16:57:51.515Z,50.36
2018-08-31T17:00:19.622Z,51.11
2018-08-31T17:02:47.973Z,50.53
2018-08-31T17:05:16.329Z,50.15
2018-08-31T17:07:44.630Z,50.32
2018-08-31T17:10:13.113Z,50.59
2018-08-31T17:12:41.493Z,50.60
2018-08-31T17:15:09.833Z,50.41
2018-08-31T17:17:38.079Z,51.30
2018-08-31T17:20:07.180Z,51.68
2018-08-31T17:22:35.512Z,51.68
2018-08-31T17:25:05.540Z,52.33
2018-08-31T17:27:39.159Z,51.92
2018-08-31T17:30:13.730Z,52.23
2018-08-31T17:47:49.685Z,54.49
2018-08-31T17:50:17.983Z,53.79
2018-08-31T17:52:46.301Z,55.01
2018-08-31T17:55:15.170Z,54.77
2018-08-31T17:57:43.591Z,54.28
2018-08-31T18:00:12.285Z,55.12
2018-08-31T18:02:40.904Z,54.90
2018-08-31T18:05:09.139Z,55.69
2018-08-31T18:07:38.478Z,54.60
2018-08-31T18:10:07.579Z,54.23
2018-08-31T18:12:35.888Z,54.43
2018-08-31T18:15:04.515Z,54.57
2018-08-31T18:17:33.098Z,55.09
2018-08-31T18:22:54.043Z,55.77
2018-08-31T18:25:22.477Z,55.79
2018-08-31T18:27:50.795Z,55.79
2018-08-31T18:30:19.128Z,56.47
2018-08-31T18:32:47.358Z,56.45
2018-08-31T18:35:15.567Z,57.23
2018-08-31T18:37:43.906Z,56.73
2018-08-31T18:40:12.192Z,57.14
2018-08-31T18:42:40.500Z,57.30
2018-08-31T18:45:08.847Z,58.22
2018-08-31T18:53:54.389Z,59.03
2018-08-31T18:56:22.674Z,60.14
2018-08-31T18:58:51.009Z,60.23
2018-08-31T19:01:19.309Z,60.29
2018-08-31T19:03:47.649Z,60.47
2018-08-31T19:06:15.929Z,61.05
2018-08-31T19:08:44.288Z,61.62
2018-08-31T19:11:12.625Z,61.55
2018-08-31T19:13:40.893Z,62.41
2018-08-31T19:16:09.247Z,62.37
2018-08-31T19:18:38.073Z,62.95
2018-08-31T20:19:48.012Z,70.77
2018-08-31T20:22:16.534Z,70.32
2018-08-31T20:24:45.513Z,70.68
2018-08-31T20:27:13.941Z,70.64
2018-08-31T20:29:42.253Z,71.11
2018-08-31T20:32:10.743Z,71.12
2018-08-31T20:34:39.194Z,71.25
2018-08-31T20:37:07.655Z,70.75
2018-08-31T20:39:36.075Z,72.07
2018-08-31T20:42:05.277Z,71.61
2018-08-31T20:44:34.260Z,72.09
2018-08-31T20:47:03.616Z,72.21
2018-08-31T20:49:32.387Z,72.38
2018-08-31T20:52:00.653Z,72.53
2018-08-31T20:54:28.826Z,71.84
2018-08-31T20:56:57.064Z,72.24
2018-08-31T20:59:25.295Z,72.22
2018-08-31T21:01:53.520Z,73.40
2018-08-31T21:04:22.080Z,73.25
2018-08-31T21:06:50.677Z,72.99
2018-08-31T21:09:19.002Z,72.79
2018-08-31T21:11:48.581Z,73.02
2018-08-31T21:14:17.010Z,73.47
2018-08-31T21:17:10.953Z,73.78
2018-08-31T21:19:40.453Z,73.77
2018-08-31T21:22:08.754Z,73.37
2018-08-31T21:27:57.966Z,74.28
2018-08-31T21:34:30.258Z,73.99
2018-08-31T21:37:08.937Z,73.98
2018-08-31T21:39:37.277Z,74.45
2018-08-31T21:42:05.416Z,74.30
2018-08-31T21:44:33.578Z,74.17
2018-08-31T21:47:01.817Z,74.73
2018-08-31T21:49:30.226Z,75.18
2018-08-31T21:51:58.543Z,74.70
2018-08-31T21:54:26.906Z,74.99
2018-08-31T21:56:55.220Z,74.91
2018-08-31T21:59:23.289Z,75.29
2018-08-31T22:01:54.392Z,75.01
2018-08-31T22:04:23.692Z,74.91
2018-08-31T22:07:13.034Z,75.46
2018-08-31T22:12:24.018Z,75.67
2018-08-31T22:14:52.302Z,75.51
2018-08-31T22:17:20.510Z,75.15
2018-08-31T22:19:49.081Z,75.14
2018-08-31T22:22:17.401Z,75.72
2018-08-31T22:24:45.561Z,75.53
2018-08-31T22:27:13.612Z,75.81
2018-08-31T22:29:41.762Z,75.86
2018-08-31T22:32:10.043Z,76.27
2018-08-31T22:34:38.258Z,76.42
2018-08-31T22:37:06.558Z,75.60
2018-08-31T22:39:34.833Z,75.41
2018-08-31T22:42:03.113Z,75.23
2018-08-31T22:44:35.332Z,75.07
2018-08-31T22:47:04.513Z,74.97
2018-08-31T22:49:32.714Z,75.40
2018-08-31T22:52:01.186Z,75.44
2018-08-31T22:54:29.467Z,75.24
2018-08-31T22:56:57.787Z,75.67
2018-08-31T22:59:26.076Z,75.92
2018-08-31T23:01:54.408Z,76.14
2018-08-31T23:04:22.595Z,76.19
2018-08-31T23:06:50.780Z,76.51
2018-08-31T23:09:19.078Z,76.35
2018-08-31T23:11:47.308Z,76.10
2018-08-31T23:14:15.608Z,76.76
2018-08-31T23:16:43.912Z,76.27
2018-08-31T23:19:12.233Z,75.71
2018-08-31T23:21:40.284Z,75.89
2018-08-31T23:24:08.642Z,75.51
2018-08-31T23:26:36.662Z,76.41
2018-08-31T23:29:05.087Z,75.77
2018-08-31T23:31:33.144Z,76.23
2018-08-31T23:34:01.348Z,75.93
2018-08-31T23:36:29.554Z,76.32
2018-08-31T23:38:57.932Z,76.05
2018-08-31T23:41:26.233Z,76.37
2018-08-31T23:43:54.254Z,76.89
2018-08-31T23:46:22.509Z,77.09
2018-08-31T23:48:50.795Z,76.45
2018-08-31T23:51:19.035Z,76.34
2018-08-31T23:53:47.394Z,76.74
2018-08-31T23:56:15.640Z,77.65
2018-08-31T23:58:43.905Z,76.85
